createdAt,value
2022-08-25T00:00:22.132Z,79.90
2022-08-25T00:02:56.255Z,79.42
2022-08-25T00:05:32.392Z,79.11
2022-08-25T00:08:03.484Z,79.01
2022-08-25T00:10:32.504Z,79.22
2022-08-25T00:13:01.661Z,79.71
2022-08-25T00:15:31.948Z,79.99
2022-08-25T00:18:01.917Z,79.67
2022-08-25T00:20:31.467Z,79.52
2022-08-25T00:22:59.876Z,79.84
2022-08-25T00:25:29.046Z,79.72
2022-08-25T00:27:59.604Z,80.10
2022-08-25T00:30:28.589Z,79.57
2022-08-25T00:32:57.674Z,79.28
2022-08-25T00:35:27.756Z,79.90
2022-08-25T00:37:56.776Z,80.02
2022-08-25T00:40:27.113Z,80.48
2022-08-25T00:42:56.662Z,80.88
2022-08-25T00:45:26.676Z,80.37
2022-08-25T00:48:02.703Z,80.08
2022-08-25T00:50:35.626Z,80.39
2022-08-25T00:53:06.521Z,80.45
2022-08-25T00:55:40.055Z,80.49
2022-08-25T00:58:20.955Z,81.05
2022-08-25T01:00:52.981Z,80.66
2022-08-25T01:03:23.937Z,80.22
2022-08-25T01:06:04.244Z,80.33
2022-08-25T01:08:34.403Z,80.95
2022-08-25T01:11:06.148Z,80.48
2022-08-25T01:13:46.446Z,80.52
2022-08-25T01:16:17.136Z,80.68
2022-08-25T01:18:54.167Z,80.14
2022-08-25T01:21:25.529Z,80.97
2022-08-25T01:23:56.068Z,81.03
2022-08-25T01:26:28.459Z,81.42
2022-08-25T01:29:20.176Z,82.12
2022-08-25T01:31:51.131Z,82.25
2022-08-25T01:34:22.044Z,82.32
2022-08-25T01:36:51.099Z,82.45
2022-08-25T01:39:19.806Z,82.21
2022-08-25T01:42:21.029Z,82.53
2022-08-25T01:44:49.906Z,81.75
2022-08-25T01:47:18.584Z,78.43
2022-08-25T01:49:47.603Z,74.84
2022-08-25T01:52:29.739Z,72.76
2022-08-25T01:54:58.362Z,67.58
2022-08-25T01:57:26.969Z,64.56
2022-08-25T01:59:55.477Z,62.11
2022-08-25T02:02:24.048Z,60.32
2022-08-25T02:04:55.002Z,59.44
2022-08-25T02:07:23.612Z,58.50
2022-08-25T02:09:52.052Z,56.92
2022-08-25T02:12:20.843Z,55.55
2022-08-25T02:14:49.562Z,55.54
2022-08-25T02:17:18.185Z,54.81
2022-08-25T02:19:46.809Z,53.35
2022-08-25T02:22:15.308Z,53.32
2022-08-25T02:24:44.116Z,52.65
2022-08-25T02:27:12.714Z,52.29
2022-08-25T02:29:41.537Z,52.55
2022-08-25T02:32:11.049Z,51.34
2022-08-25T02:34:42.119Z,52.87
2022-08-25T02:37:10.775Z,52.44
2022-08-25T02:39:39.452Z,51.08
2022-08-25T02:42:08.183Z,49.40
2022-08-25T02:44:36.865Z,50.49
2022-08-25T02:47:05.601Z,50.09
2022-08-25T02:49:34.286Z,49.46
2022-08-25T02:52:02.997Z,49.47
2022-08-25T02:54:32.095Z,48.01
2022-08-25T02:57:00.633Z,47.30
2022-08-25T02:59:29.682Z,47.48
2022-08-25T03:01:58.109Z,50.30
2022-08-25T03:04:26.983Z,48.20
2022-08-25T03:06:55.989Z,49.41
2022-08-25T03:09:24.599Z,47.03
2022-08-25T03:11:55.782Z,48.48
2022-08-25T03:14:24.652Z,46.22
2022-08-25T03:16:53.209Z,48.21
2022-08-25T03:19:25.067Z,47.92
2022-08-25T03:21:56.615Z,44.97
2022-08-25T03:24:25.480Z,45.92
2022-08-25T03:26:54.524Z,46.23
2022-08-25T03:29:25.571Z,44.85
2022-08-25T03:31:56.073Z,46.88
2022-08-25T03:34:26.536Z,44.34
2022-08-25T03:36:56.742Z,45.60
2022-08-25T03:39:26.834Z,47.45
2022-08-25T03:41:55.994Z,44.83
2022-08-25T03:44:24.608Z,45.00
2022-08-25T03:46:53.609Z,43.27
2022-08-25T03:49:24.577Z,45.09
2022-08-25T03:51:55.688Z,44.09
2022-08-25T03:54:26.257Z,45.24
2022-08-25T03:56:54.865Z,43.46
2022-08-25T03:59:23.318Z,44.51
2022-08-25T04:01:55.233Z,43.59
2022-08-25T04:04:24.797Z,42.89
2022-08-25T04:06:53.629Z,42.48
2022-08-25T04:09:22.550Z,41.24
2022-08-25T04:11:52.031Z,40.48
2022-08-25T04:14:22.647Z,41.33
2022-08-25T04:16:51.526Z,41.76
2022-08-25T04:19:21.290Z,41.49
2022-08-25T04:21:50.301Z,40.68
2022-08-25T04:24:19.044Z,41.15
2022-08-25T04:26:50.391Z,41.46
2022-08-25T04:29:23.508Z,42.00
2022-08-25T04:31:54.235Z,43.09
2022-08-25T04:34:29.584Z,42.03
2022-08-25T04:37:00.393Z,41.58
2022-08-25T04:39:29.191Z,40.49
2022-08-25T04:41:58.077Z,40.38
2022-08-25T04:44:26.831Z,39.79
2022-08-25T04:46:55.433Z,40.71
2022-08-25T04:49:24.272Z,39.18
2022-08-25T04:51:53.502Z,38.92
2022-08-25T04:54:23.170Z,40.53
2022-08-25T04:56:54.178Z,39.06
2022-08-25T04:59:24.976Z,38.63
2022-08-25T05:01:59.836Z,39.07
2022-08-25T05:04:29.143Z,36.65
2022-08-25T05:06:58.437Z,37.73
2022-08-25T05:09:28.049Z,37.25
2022-08-25T05:11:56.874Z,37.35
2022-08-25T05:14:26.550Z,36.81
2022-08-25T05:16:56.430Z,35.74
2022-08-25T05:19:25.266Z,36.95
2022-08-25T05:21:54.508Z,35.65
2022-08-25T05:24:23.120Z,37.40
2022-08-25T05:26:51.757Z,36.10
2022-08-25T05:29:20.375Z,36.10
2022-08-25T05:31:50.971Z,35.82
2022-08-25T05:34:21.008Z,35.61
2022-08-25T05:36:50.487Z,35.35
2022-08-25T05:39:19.159Z,35.01
2022-08-25T05:41:47.893Z,33.67
2022-08-25T05:44:20.829Z,33.52
2022-08-25T05:46:50.178Z,34.93
2022-08-25T05:49:18.952Z,32.93
2022-08-25T05:51:47.513Z,33.00
2022-08-25T05:54:19.091Z,32.60
2022-08-25T05:56:48.243Z,35.08
2022-08-25T05:59:17.113Z,32.88
2022-08-25T06:02:04.398Z,32.39
2022-08-25T06:04:33.115Z,30.62
2022-08-25T06:07:02.039Z,31.76
2022-08-25T06:09:30.667Z,32.13
2022-08-25T06:11:59.576Z,31.96
2022-08-25T06:14:28.276Z,31.84
2022-08-25T06:16:57.777Z,32.35
2022-08-25T06:19:26.716Z,30.73
2022-08-25T06:21:57.098Z,29.98
2022-08-25T06:24:27.540Z,30.84
2022-08-25T06:26:57.457Z,31.26
2022-08-25T06:29:26.840Z,31.98
2022-08-25T06:31:55.667Z,31.80
2022-08-25T06:34:24.504Z,29.90
2022-08-25T06:36:53.896Z,29.70
2022-08-25T06:39:23.188Z,30.09
2022-08-25T06:41:53.607Z,30.43
2022-08-25T06:44:23.486Z,30.56
2022-08-25T06:46:52.550Z,30.47
2022-08-25T06:49:22.304Z,31.46
2022-08-25T06:51:51.186Z,29.91
2022-08-25T06:54:19.797Z,31.22
2022-08-25T06:56:49.612Z,29.71
2022-08-25T06:59:19.256Z,29.60
2022-08-25T07:01:50.215Z,31.47
2022-08-25T07:04:19.658Z,31.80
2022-08-25T07:06:48.746Z,31.32
2022-08-25T07:09:17.997Z,31.15
2022-08-25T07:11:47.265Z,31.74
2022-08-25T07:14:17.902Z,30.55
2022-08-25T07:16:49.617Z,29.04
2022-08-25T07:19:22.638Z,30.52
2022-08-25T07:21:53.572Z,30.39
2022-08-25T07:24:23.552Z,29.81
2022-08-25T07:26:52.286Z,30.03
2022-08-25T07:29:31.624Z,31.29
2022-08-25T07:32:03.215Z,31.82
2022-08-25T07:34:52.214Z,30.82
2022-08-25T07:37:48.405Z,31.23
2022-08-25T07:40:15.900Z,29.83
2022-08-25T07:42:45.565Z,32.97
2022-08-25T07:45:20.519Z,30.63
2022-08-25T07:47:51.557Z,30.17
2022-08-25T07:50:21.959Z,29.90
2022-08-25T07:52:55.258Z,31.22
2022-08-25T07:55:27.018Z,31.25
2022-08-25T07:57:57.094Z,31.28
2022-08-25T08:00:28.396Z,31.34
2022-08-25T08:02:58.481Z,30.79
2022-08-25T08:05:28.595Z,30.44
2022-08-25T08:07:57.745Z,32.08
2022-08-25T08:10:47.909Z,31.59
2022-08-25T08:13:18.625Z,30.84
2022-08-25T08:15:48.453Z,29.92
2022-08-25T08:18:18.377Z,31.26
2022-08-25T08:20:48.982Z,31.54
2022-08-25T08:23:19.978Z,31.55
2022-08-25T08:25:48.929Z,31.45
2022-08-25T08:28:17.586Z,31.75
2022-08-25T08:30:52.871Z,31.34
2022-08-25T08:33:24.352Z,31.65
2022-08-25T08:36:12.674Z,31.81
2022-08-25T08:38:43.837Z,30.33
2022-08-25T08:42:11.177Z,30.55
2022-08-25T08:44:46.530Z,31.79
2022-08-25T08:47:23.565Z,31.20
2022-08-25T08:50:03.805Z,31.23
2022-08-25T08:52:45.379Z,31.28
2022-08-25T08:55:27.685Z,31.39
2022-08-25T08:58:00.794Z,32.03
2022-08-25T09:00:30.453Z,32.85
2022-08-25T09:03:02.451Z,31.90
2022-08-25T09:05:47.163Z,33.04
2022-08-25T09:08:20.264Z,32.83
2022-08-25T09:11:16.420Z,32.72
2022-08-25T09:13:59.321Z,32.75
2022-08-25T09:16:56.374Z,32.72
2022-08-25T09:19:50.566Z,32.29
2022-08-25T09:22:35.036Z,32.58
2022-08-25T09:25:29.488Z,33.26
2022-08-25T09:28:34.881Z,33.91
2022-08-25T09:31:05.268Z,33.87
2022-08-25T09:33:35.948Z,32.76
2022-08-25T09:36:08.803Z,34.31
2022-08-25T09:38:38.519Z,34.25
2022-08-25T09:41:08.435Z,32.69
2022-08-25T09:43:45.706Z,33.63
2022-08-25T09:46:27.006Z,33.93
2022-08-25T09:49:11.870Z,34.17
2022-08-25T09:51:44.478Z,33.92
2022-08-25T09:54:19.969Z,34.83
2022-08-25T09:56:55.097Z,35.18
2022-08-25T09:59:36.055Z,34.88
2022-08-25T10:02:26.261Z,34.17
2022-08-25T10:04:57.542Z,33.72
2022-08-25T10:07:40.509Z,33.14
2022-08-25T10:10:32.400Z,33.81
2022-08-25T10:13:06.267Z,34.35
2022-08-25T10:15:39.475Z,33.94
2022-08-25T10:18:30.788Z,34.90
2022-08-25T10:21:13.492Z,35.01
2022-08-25T10:23:56.713Z,33.63
2022-08-25T10:26:44.490Z,34.47
2022-08-25T10:29:35.421Z,34.67
2022-08-25T10:32:21.744Z,36.01
2022-08-25T10:34:56.809Z,35.53
2022-08-25T10:37:28.305Z,36.14
2022-08-25T10:40:26.244Z,35.31
2022-08-25T10:43:08.305Z,36.22
2022-08-25T10:46:00.900Z,36.27
2022-08-25T10:48:32.846Z,36.55
2022-08-25T10:51:37.564Z,35.81
2022-08-25T10:54:29.745Z,36.07
2022-08-25T10:57:08.143Z,36.77
2022-08-25T10:59:50.088Z,36.43
2022-08-25T11:02:55.991Z,36.90
2022-08-25T11:05:44.820Z,35.59
2022-08-25T11:08:34.467Z,36.43
2022-08-25T11:11:22.943Z,37.83
2022-08-25T11:14:11.156Z,36.62
2022-08-25T11:16:48.589Z,36.15
2022-08-25T11:19:22.647Z,36.15
2022-08-25T11:22:03.719Z,37.56
2022-08-25T11:24:48.936Z,36.11
2022-08-25T11:27:24.751Z,37.02
2022-08-25T11:30:13.035Z,36.50
2022-08-25T11:32:48.134Z,36.48
2022-08-25T11:35:27.838Z,36.95
2022-08-25T11:38:11.831Z,37.36
2022-08-25T11:40:56.344Z,36.97
2022-08-25T11:43:43.500Z,36.29
2022-08-25T11:46:23.503Z,38.13
2022-08-25T11:49:17.841Z,37.28
2022-08-25T11:51:52.314Z,37.93
2022-08-25T11:54:46.690Z,37.29
2022-08-25T11:57:26.687Z,36.82
2022-08-25T12:00:20.443Z,37.14
2022-08-25T12:02:51.842Z,37.42
2022-08-25T12:05:22.862Z,37.87
2022-08-25T12:08:15.969Z,37.99
2022-08-25T12:11:11.250Z,38.27
2022-08-25T12:13:55.041Z,38.35
2022-08-25T12:16:48.325Z,38.24
2022-08-25T12:19:41.097Z,38.34
2022-08-25T12:22:29.819Z,37.57
2022-08-25T12:25:39.784Z,38.35
2022-08-25T12:28:44.935Z,39.21
2022-08-25T12:31:53.400Z,39.59
2022-08-25T12:34:47.663Z,38.85
2022-08-25T12:37:27.032Z,39.67
2022-08-25T12:40:16.019Z,38.78
2022-08-25T12:43:04.215Z,40.32
2022-08-25T12:45:39.321Z,40.01
2022-08-25T12:48:26.153Z,40.59
2022-08-25T12:51:01.752Z,40.82
2022-08-25T12:53:40.965Z,40.32
2022-08-25T12:56:17.903Z,40.47
2022-08-25T12:59:04.517Z,41.16
2022-08-25T13:01:52.521Z,40.75
2022-08-25T13:04:44.715Z,42.06
2022-08-25T13:07:16.213Z,42.22
2022-08-25T13:10:04.366Z,41.43
2022-08-25T13:13:01.703Z,41.61
2022-08-25T13:15:48.760Z,41.43
2022-08-25T13:18:33.313Z,41.82
2022-08-25T13:21:33.632Z,43.22
2022-08-25T13:24:22.404Z,42.83
2022-08-25T13:27:12.786Z,42.68
2022-08-25T13:29:58.059Z,43.08
2022-08-25T13:32:39.681Z,42.77
2022-08-25T13:35:32.190Z,43.06
2022-08-25T13:38:19.218Z,43.55
2022-08-25T13:40:51.903Z,44.25
2022-08-25T13:43:29.647Z,43.42
2022-08-25T13:46:02.120Z,44.67
2022-08-25T13:48:40.429Z,46.27
2022-08-25T13:51:31.331Z,47.07
2022-08-25T13:54:05.525Z,48.06
2022-08-25T13:56:40.913Z,48.96
2022-08-25T13:59:40.175Z,49.47
2022-08-25T14:02:15.228Z,49.86
2022-08-25T14:04:51.145Z,49.76
2022-08-25T14:07:23.381Z,50.46
2022-08-25T14:10:01.425Z,50.26
2022-08-25T14:12:38.085Z,51.10
2022-08-25T14:15:18.572Z,50.50
2022-08-25T14:18:19.161Z,51.42
2022-08-25T14:21:15.294Z,51.35
2022-08-25T14:23:54.870Z,51.86
2022-08-25T14:26:37.073Z,52.62
2022-08-25T14:29:31.860Z,52.27
2022-08-25T14:32:13.564Z,52.05
2022-08-25T14:34:47.567Z,53.00
2022-08-25T14:37:32.443Z,53.48
2022-08-25T14:40:09.934Z,53.70
2022-08-25T14:42:49.525Z,54.12
2022-08-25T14:45:28.037Z,54.53
2022-08-25T14:48:17.382Z,54.64
2022-08-25T14:50:54.395Z,55.33
2022-08-25T14:53:51.871Z,55.65
2022-08-25T14:56:29.750Z,55.85
2022-08-25T14:59:13.933Z,55.57
2022-08-25T15:01:52.528Z,55.49
2022-08-25T15:04:28.861Z,55.12
2022-08-25T15:07:00.815Z,55.61
2022-08-25T15:09:33.580Z,55.35
2022-08-25T15:12:02.546Z,55.87
2022-08-25T15:14:33.295Z,56.12
2022-08-25T15:17:04.231Z,56.15
2022-08-25T15:19:35.923Z,57.56
2022-08-25T15:22:05.479Z,57.74
2022-08-25T15:24:37.792Z,58.11
2022-08-25T15:27:10.099Z,58.08
2022-08-25T15:29:39.090Z,58.31
2022-08-25T15:32:09.015Z,58.63
2022-08-25T15:34:39.160Z,59.02
2022-08-25T15:37:16.503Z,59.11
2022-08-25T15:39:46.747Z,59.59
2022-08-25T15:42:17.164Z,59.78
2022-08-25T15:44:53.189Z,59.85
2022-08-25T15:47:23.632Z,59.73
2022-08-25T15:50:02.539Z,59.54
2022-08-25T15:52:44.401Z,59.79
2022-08-25T15:55:16.236Z,59.35
2022-08-25T16:00:13.612Z,59.28
2022-08-25T16:02:46.383Z,59.54
2022-08-25T16:05:16.432Z,59.71
2022-08-25T16:07:51.793Z,60.04
2022-08-25T16:10:21.402Z,60.16
2022-08-25T16:12:50.423Z,60.66
2022-08-25T16:15:23.896Z,61.12
2022-08-25T16:17:59.926Z,61.42
2022-08-25T16:20:29.944Z,61.54
2022-08-25T16:23:03.860Z,61.51
2022-08-25T16:25:33.464Z,61.99
2022-08-25T16:28:05.087Z,61.86
2022-08-25T16:30:34.292Z,62.45
2022-08-25T16:33:03.536Z,62.69
2022-08-25T16:35:35.322Z,62.82
2022-08-25T16:38:09.606Z,63.19
2022-08-25T16:40:43.422Z,62.70
2022-08-25T16:43:12.154Z,62.84
2022-08-25T16:45:41.143Z,63.07
2022-08-25T16:48:11.363Z,63.33
2022-08-25T16:50:41.346Z,63.45
2022-08-25T16:53:31.079Z,63.41
2022-08-25T16:56:06.625Z,63.49
2022-08-25T16:58:39.765Z,63.82
2022-08-25T17:01:11.942Z,64.11
2022-08-25T17:03:44.493Z,64.42
2022-08-25T17:06:15.167Z,64.33
2022-08-25T17:08:44.481Z,64.77
2022-08-25T17:11:27.262Z,64.73
2022-08-25T17:13:59.541Z,64.60
2022-08-25T17:16:30.681Z,64.61
2022-08-25T17:19:02.686Z,64.82
2022-08-25T17:21:37.701Z,64.77
2022-08-25T17:24:07.283Z,64.98
2022-08-25T17:26:39.501Z,64.83
2022-08-25T17:29:14.093Z,65.06
2022-08-25T17:31:46.041Z,65.50
2022-08-25T17:34:16.940Z,65.50
2022-08-25T17:36:52.290Z,65.91
2022-08-25T17:39:22.721Z,66.32
2022-08-25T17:41:52.184Z,66.18
2022-08-25T17:44:21.602Z,66.20
2022-08-25T17:46:52.361Z,66.38
2022-08-25T17:49:21.203Z,66.65
2022-08-25T17:51:51.782Z,66.79
2022-08-25T17:54:20.777Z,67.17
2022-08-25T17:56:49.476Z,66.97
2022-08-25T17:59:19.695Z,66.85
2022-08-25T18:01:48.405Z,66.23
2022-08-25T18:04:19.505Z,66.51
2022-08-25T18:06:49.081Z,66.43
2022-08-25T18:09:18.822Z,66.73
2022-08-25T18:11:47.848Z,66.83
2022-08-25T18:14:17.282Z,67.06
2022-08-25T18:16:46.468Z,67.03
2022-08-25T18:19:16.323Z,67.02
2022-08-25T18:21:44.820Z,67.00
2022-08-25T18:24:13.575Z,66.97
2022-08-25T18:26:42.889Z,66.67
2022-08-25T18:29:13.813Z,67.07
2022-08-25T18:31:42.782Z,67.35
2022-08-25T18:34:13.616Z,67.52
2022-08-25T18:36:42.182Z,67.20
2022-08-25T18:39:34.558Z,67.76
2022-08-25T18:42:06.285Z,67.75
2022-08-25T18:44:35.609Z,67.67
2022-08-25T18:47:07.662Z,67.73
2022-08-25T18:49:37.855Z,67.92
2022-08-25T18:52:07.572Z,68.16
2022-08-25T18:54:36.410Z,68.45
2022-08-25T18:57:05.151Z,68.48
2022-08-25T18:59:37.903Z,68.67
2022-08-25T19:02:07.665Z,68.87
2022-08-25T19:04:37.601Z,69.85
2022-08-25T19:07:08.009Z,70.13
2022-08-25T19:09:39.852Z,70.86
2022-08-25T19:12:11.789Z,70.85
2022-08-25T19:14:54.113Z,71.20
2022-08-25T19:17:24.761Z,71.61
2022-08-25T19:19:53.575Z,71.90
2022-08-25T19:22:40.788Z,71.88
2022-08-25T19:25:11.292Z,72.13
2022-08-25T19:27:41.035Z,72.39
2022-08-25T19:30:10.962Z,72.59
2022-08-25T19:32:43.090Z,72.52
2022-08-25T19:35:22.043Z,73.00
2022-08-25T19:37:52.770Z,73.03
2022-08-25T19:40:23.235Z,73.44
2022-08-25T19:42:53.809Z,73.57
2022-08-25T19:45:24.812Z,73.72
2022-08-25T19:47:54.087Z,74.12
2022-08-25T19:50:25.922Z,74.43
2022-08-25T19:52:54.728Z,73.99
2022-08-25T19:55:25.422Z,74.65
2022-08-25T19:57:54.700Z,74.75
2022-08-25T20:00:30.347Z,75.15
2022-08-25T20:03:01.262Z,75.42
2022-08-25T20:05:31.593Z,75.09
2022-08-25T20:08:00.603Z,75.56
2022-08-25T20:10:35.620Z,75.92
2022-08-25T20:13:10.420Z,75.81
2022-08-25T20:15:39.603Z,76.03
2022-08-25T20:18:08.677Z,76.11
2022-08-25T20:20:37.489Z,77.10
2022-08-25T20:23:26.827Z,76.95
2022-08-25T20:25:56.705Z,76.87
2022-08-25T20:28:25.340Z,77.40
2022-08-25T20:30:54.041Z,77.34
2022-08-25T20:33:23.616Z,77.81
2022-08-25T20:35:53.186Z,77.73
2022-08-25T20:38:22.041Z,78.49
2022-08-25T20:40:50.995Z,78.66
2022-08-25T20:43:20.820Z,78.78
2022-08-25T20:45:50.050Z,78.70
2022-08-25T20:48:19.066Z,78.98
2022-08-25T20:50:57.622Z,78.90
2022-08-25T20:53:27.133Z,78.91
2022-08-25T20:55:55.911Z,79.25
2022-08-25T20:58:24.389Z,79.43
2022-08-25T21:00:55.529Z,79.63
2022-08-25T21:03:24.795Z,79.68
2022-08-25T21:05:54.236Z,80.07
2022-08-25T21:08:23.717Z,79.96
2022-08-25T21:10:54.327Z,80.10
2022-08-25T21:13:23.742Z,80.68
2022-08-25T21:15:52.956Z,80.39
2022-08-25T21:18:21.706Z,80.54
2022-08-25T21:20:50.343Z,81.00
2022-08-25T21:23:24.176Z,81.10
2022-08-25T21:25:53.593Z,81.21
2022-08-25T21:28:22.379Z,81.65
2022-08-25T21:30:52.041Z,81.80
2022-08-25T21:33:42.873Z,81.92
2022-08-25T21:36:13.457Z,81.80
2022-08-25T21:38:42.657Z,82.29
2022-08-25T21:41:16.239Z,82.68
2022-08-25T21:43:46.305Z,82.30
2022-08-25T21:46:20.920Z,82.86
2022-08-25T21:48:50.978Z,82.96
2022-08-25T21:51:23.317Z,82.69
2022-08-25T21:53:52.474Z,83.30
2022-08-25T21:56:23.357Z,82.93
2022-08-25T21:58:54.915Z,83.27
2022-08-25T22:01:23.760Z,83.68
2022-08-25T22:03:52.270Z,83.64
2022-08-25T22:06:23.240Z,84.33
2022-08-25T22:08:52.476Z,84.24
2022-08-25T22:11:23.387Z,84.43
2022-08-25T22:13:54.135Z,84.24
2022-08-25T22:16:23.951Z,84.38
2022-08-25T22:18:54.134Z,84.33
2022-08-25T22:21:23.986Z,84.61
2022-08-25T22:23:52.581Z,85.14
2022-08-25T22:26:22.074Z,85.43
2022-08-25T22:28:50.812Z,84.98
2022-08-25T22:31:20.648Z,85.70
2022-08-25T22:33:51.002Z,85.16
2022-08-25T22:36:22.907Z,85.77
2022-08-25T22:38:56.313Z,85.42
2022-08-25T22:41:28.117Z,85.55
2022-08-25T22:43:57.697Z,84.95
2022-08-25T22:46:29.085Z,84.96
2022-08-25T22:48:58.254Z,84.71
2022-08-25T22:51:32.128Z,84.83
2022-08-25T22:54:02.886Z,84.66
2022-08-25T22:56:35.628Z,85.51
2022-08-25T22:59:09.174Z,85.67
2022-08-25T23:01:38.654Z,85.92
2022-08-25T23:04:08.805Z,86.12
2022-08-25T23:06:39.502Z,86.13
2022-08-25T23:09:10.991Z,86.09
2022-08-25T23:11:40.591Z,86.38
2022-08-25T23:14:11.830Z,85.61
2022-08-25T23:16:43.312Z,85.85
2022-08-25T23:19:14.376Z,86.60
2022-08-25T23:22:02.869Z,86.82
2022-08-25T23:24:32.195Z,86.52
2022-08-25T23:27:02.319Z,86.35
2022-08-25T23:29:35.083Z,86.26
2022-08-25T23:32:07.919Z,86.25
2022-08-25T23:34:38.993Z,86.29
2022-08-25T23:37:10.094Z,86.43
2022-08-25T23:39:41.499Z,86.59
2022-08-25T23:42:10.756Z,86.87
2022-08-25T23:44:39.467Z,86.95
2022-08-25T23:47:07.953Z,86.58
2022-08-25T23:49:40.728Z,86.56
2022-08-25T23:52:12.518Z,86.13
2022-08-25T23:54:41.223Z,86.87
2022-08-25T23:57:10.048Z,87.34
2022-08-25T23:59:39.214Z,87.55
